Time;durP1;ratioP1;P1;durP2;ratioP2;P2;SDS_P1;SDS_P2;PMS_P1;PMS_P2;Temp;Humidity;BMP_temperature;BMP_pressure;BME280_temperature;BME280_humidity;BME280_pressure;Samples;Min_cycle;Max_cycle;Signal;HPM_P1;HPM_P2
2022/05/17 00:01:38;;;;;;;14.15;5.92;;;;;;;5.26;100.00;99605.47;1753284;81;21068;-56
2022/05/17 00:04:05;;;;;;;;;;;;;;;5.24;100.00;99606.25;1746892;81;21586;-57
2022/05/17 00:06:33;;;;;;;15.75;5.17;;;;;;;5.26;100.00;99596.02;1752989;81;20113;-56
2022/05/17 00:08:59;;;;;;;13.40;5.65;;;;;;;5.27;100.00;99593.62;1741676;81;21125;-57
2022/05/17 00:11:28;;;;;;;15.55;5.62;;;;;;;5.31;100.00;99592.61;1749000;82;21054;-56
2022/05/17 00:13:56;;;;;;;11.10;5.15;;;;;;;5.33;100.00;99597.23;1750024;81;21054;-57
2022/05/17 00:16:23;;;;;;;10.85;5.12;;;;;;;5.29;100.00;99596.06;1745938;80;21116;-57
2022/05/17 00:18:50;;;;;;;11.08;5.40;;;;;;;5.26;100.00;99590.63;1735145;81;21682;-57
2022/05/17 00:21:16;;;;;;;12.50;5.50;;;;;;;5.23;100.00;99588.94;1721502;82;21106;-57
2022/05/17 00:23:43;;;;;;;10.43;5.35;;;;;;;5.21;100.00;99591.07;1748019;81;21055;-57
2022/05/17 00:26:11;;;;;;;9.90;5.25;;;;;;;5.17;100.00;99585.86;1745386;81;21067;-57
2022/05/17 00:28:37;;;;;;;15.23;4.62;;;;;;;5.14;100.00;99596.58;1750210;81;21339;-57
2022/05/17 00:31:08;;;;;;;9.53;4.05;;;;;;;5.11;100.00;99597.59;1715803;82;21072;-57
2022/05/17 00:33:37;;;;;;;13.43;4.47;;;;;;;5.13;100.00;99599.53;1749623;81;21055;-57
2022/05/17 00:36:03;;;;;;;;;;;;;;;5.19;100.00;99596.70;1754893;80;21039;-57
2022/05/17 00:38:30;;;;;;;8.45;3.40;;;;;;;5.23;100.00;99591.63;1747928;81;20120;-57
2022/05/17 00:40:57;;;;;;;9.75;3.25;;;;;;;5.16;100.00;99593.12;1749362;82;21023;-57
2022/05/17 00:46:30;;;;;;;5.42;2.37;;;;;;;5.29;100.00;99587.97;1742996;81;20103;-57
2022/05/17 00:48:56;;;;;;;7.33;2.22;;;;;;;5.32;100.00;99587.48;1748732;81;21028;-57
2022/05/17 00:51:26;;;;;;;5.87;2.30;;;;;;;5.40;100.00;99584.41;1720044;82;20987;-57
2022/05/17 00:53:53;;;;;;;6.37;2.58;;;;;;;5.45;100.00;99579.94;1736865;82;21047;-57
2022/05/17 00:56:22;;;;;;;7.37;2.98;;;;;;;5.49;100.00;99583.77;1750599;81;21556;-58
2022/05/17 00:58:52;;;;;;;7.12;2.70;;;;;;;5.53;100.00;99583.30;1745638;81;20974;-58
2022/05/17 01:01:21;;;;;;;7.42;2.30;;;;;;;5.58;100.00;99583.38;1749109;81;21563;-58
2022/05/17 01:04:08;;;;;;;7.47;2.60;;;;;;;5.66;100.00;99585.69;1739551;82;21047;-57
2022/05/17 01:06:42;;;;;;;6.83;2.70;;;;;;;5.69;100.00;99581.97;1739013;81;21098;-58
2022/05/17 01:09:12;;;;;;;7.22;2.12;;;;;;;5.70;100.00;99576.04;1741667;81;21068;-58
2022/05/17 01:11:41;;;;;;;4.58;2.20;;;;;;;5.71;100.00;99577.66;1722885;81;21019;-58
2022/05/17 01:16:55;;;;;;;5.35;1.77;;;;;;;5.71;100.00;99569.55;1739005;81;21059;-58
2022/05/17 01:19:22;;;;;;;5.17;2.10;;;;;;;5.68;100.00;99569.52;1738003;81;21011;-58
2022/05/17 01:21:48;;;;;;;5.47;1.80;;;;;;;5.69;100.00;99570.34;1735530;81;21579;-58
2022/05/17 01:24:14;;;;;;;5.95;1.80;;;;;;;5.71;100.00;99564.98;1726740;82;21118;-58
2022/05/17 01:26:43;;;;;;;5.70;2.10;;;;;;;5.79;100.00;99565.94;1729180;81;21106;-57
2022/05/17 01:29:11;;;;;;;6.50;1.80;;;;;;;5.78;100.00;99566.16;1740034;81;21062;-57
2022/05/17 01:31:38;;;;;;;4.03;1.67;;;;;;;5.72;100.00;99561.22;1742624;81;21064;-58
2022/05/17 01:34:07;;;;;;;4.33;1.52;;;;;;;5.67;100.00;99566.52;1741390;81;21094;-58
2022/05/17 01:36:34;;;;;;;4.60;1.57;;;;;;;5.61;100.00;99561.28;1744226;81;21604;-58
2022/05/17 01:39:01;;;;;;;3.92;1.40;;;;;;;5.56;100.00;99555.28;1735839;81;20993;-58
2022/05/17 01:41:28;;;;;;;4.87;1.60;;;;;;;5.53;100.00;99557.66;1740610;81;21554;-58
2022/05/17 01:43:54;;;;;;;;;;;;;;;5.48;100.00;99560.55;1743234;81;20995;-58
2022/05/17 01:46:21;;;;;;;7.08;1.30;;;;;;;5.53;100.00;99559.00;1736921;81;20123;-57
2022/05/17 01:48:50;;;;;;;3.35;1.25;;;;;;;5.56;100.00;99549.88;1746322;82;20991;-58
2022/05/17 01:51:17;;;;;;;4.15;1.17;;;;;;;5.62;100.00;99549.43;1739058;81;21013;-58
2022/05/17 01:53:43;;;;;;;5.53;1.65;;;;;;;5.63;100.00;99551.08;1741839;81;20987;-57
2022/05/17 01:56:10;;;;;;;4.78;1.35;;;;;;;5.65;100.00;99555.69;1739062;81;21096;-58
2022/05/17 01:58:37;;;;;;;3.05;1.30;;;;;;;5.67;100.00;99554.92;1730650;82;21040;-57
2022/05/17 02:01:03;;;;;;;;;;;;;;;5.69;100.00;99550.91;1745673;81;21074;-57
2022/05/17 02:03:30;;;;;;;4.05;1.05;;;;;;;5.72;100.00;99549.59;1740552;81;20109;-58
2022/05/17 02:05:57;;;;;;;4.85;1.40;;;;;;;5.64;100.00;99549.98;1744045;81;21643;-58
2022/05/17 02:08:24;;;;;;;5.08;1.40;;;;;;;5.63;100.00;99542.45;1712983;81;21062;-59
2022/05/17 02:10:50;;;;;;;4.00;1.50;;;;;;;5.70;100.00;99544.98;1734769;81;21565;-57
2022/05/17 02:13:18;;;;;;;4.12;1.15;;;;;;;5.79;100.00;99548.91;1731437;81;21539;-58
2022/05/17 02:15:45;;;;;;;4.15;1.52;;;;;;;5.81;100.00;99544.88;1733114;81;21096;-58
2022/05/17 02:18:12;;;;;;;;;;;;;;;5.80;100.00;99540.56;1742015;81;21574;-58
2022/05/17 02:20:38;;;;;;;3.92;0.95;;;;;;;5.78;100.00;99544.03;1736343;81;20123;-58
2022/05/17 02:23:07;;;;;;;1.92;1.17;;;;;;;5.73;100.00;99548.54;1745503;81;21022;-58
2022/05/17 02:25:35;;;;;;;2.77;1.00;;;;;;;5.71;100.00;99547.42;1743152;81;21661;-58
2022/05/17 02:28:06;;;;;;;7.33;1.07;;;;;;;5.75;100.00;99541.00;1742094;81;21090;-58
2022/05/17 02:30:35;;;;;;;5.40;1.10;;;;;;;5.77;100.00;99541.59;1700997;82;21213;-58
2022/05/17 02:33:02;;;;;;;2.40;0.98;;;;;;;5.81;100.00;99541.39;1747128;81;21515;-58
2022/05/17 02:35:28;;;;;;;3.37;1.02;;;;;;;5.91;100.00;99546.98;1742805;81;21111;-58
2022/05/17 02:37:55;;;;;;;3.20;0.93;;;;;;;5.96;100.00;99541.11;1707812;83;21141;-58
2022/05/17 02:40:21;;;;;;;4.33;0.90;;;;;;;5.98;100.00;99545.76;1735740;81;21453;-58
2022/05/17 02:42:48;;;;;;;2.95;1.45;;;;;;;6.01;100.00;99545.79;1739749;81;21022;-58
2022/05/17 02:45:15;;;;;;;3.45;1.00;;;;;;;6.06;100.00;99542.36;1740714;81;21085;-58
2022/05/17 02:47:41;;;;;;;3.20;1.00;;;;;;;6.11;100.00;99545.12;1744701;81;20979;-58
2022/05/17 02:50:09;;;;;;;3.47;0.80;;;;;;;6.18;100.00;99540.36;1739495;81;20979;-58
2022/05/17 02:52:37;;;;;;;4.83;1.17;;;;;;;6.17;100.00;99525.20;1753863;81;20998;-58
2022/05/17 02:55:05;;;;;;;2.67;0.88;;;;;;;6.38;100.00;99537.94;1717565;81;21027;-58
2022/05/17 02:57:32;;;;;;;4.20;0.95;;;;;;;6.51;100.00;99538.95;1739946;81;21036;-58
2022/05/17 02:59:59;;;;;;;1.98;0.90;;;;;;;6.70;100.00;99529.45;1738659;81;22373;-58
2022/05/17 03:02:26;;;;;;;3.05;0.98;;;;;;;6.85;100.00;99536.94;1743567;81;21026;-58
2022/05/17 03:04:53;;;;;;;3.35;0.85;;;;;;;6.92;100.00;99515.39;1732082;81;21416;-57
2022/05/17 03:07:19;;;;;;;3.83;1.02;;;;;;;7.01;100.00;99520.63;1725300;82;21534;-58
2022/05/17 03:09:47;;;;;;;2.45;0.80;;;;;;;7.10;100.00;99514.23;1697966;81;21046;-57
2022/05/17 03:12:14;;;;;;;2.50;1.00;;;;;;;7.18;100.00;99507.55;1697998;83;21078;-57
2022/05/17 03:14:40;;;;;;;;;;;;;;;7.25;100.00;99525.23;1707770;83;21082;-58
2022/05/17 03:17:14;;;;;;;6.00;1.30;;;;;;;7.30;100.00;99530.68;1716067;81;20502;-57
2022/05/17 03:19:41;;;;;;;4.15;1.15;;;;;;;7.27;100.00;99524.42;1668013;85;21050;-57
2022/05/17 03:22:07;;;;;;;3.22;1.10;;;;;;;7.35;100.00;99525.33;1701597;84;21046;-57
2022/05/17 03:24:34;;;;;;;3.40;1.17;;;;;;;7.43;100.00;99527.59;1702282;82;21031;-58
2022/05/17 03:27:03;;;;;;;3.58;1.30;;;;;;;7.52;100.00;99527.92;1700759;83;21556;-57
2022/05/17 03:29:30;;;;;;;3.65;1.25;;;;;;;7.62;100.00;99521.77;1699701;83;21058;-58
2022/05/17 03:31:56;;;;;;;3.85;0.98;;;;;;;7.77;100.00;99518.66;1669521;84;21113;-58
2022/05/17 03:34:25;;;;;;;2.58;0.98;;;;;;;7.92;100.00;99526.10;1671419;84;21050;-58
2022/05/17 03:36:52;;;;;;;2.72;1.00;;;;;;;7.99;100.00;99519.92;1677276;84;21086;-57
2022/05/17 03:39:18;;;;;;;4.58;1.25;;;;;;;8.08;100.00;99518.91;1666946;84;21640;-58
2022/05/17 03:41:46;;;;;;;2.70;0.90;;;;;;;8.15;100.00;99518.94;1696582;84;21058;-58
2022/05/17 03:44:12;;;;;;;;;;;;;;;8.26;100.00;99518.46;1639766;86;21494;-58
2022/05/17 03:46:39;;;;;;;3.90;0.95;;;;;;;8.34;100.00;99528.33;1689534;83;20117;-58
2022/05/17 03:49:05;;;;;;;2.80;1.32;;;;;;;8.36;100.00;99518.02;1700550;84;21043;-58
2022/05/17 03:51:32;;;;;;;;;;;;;;;8.47;100.00;99524.31;1701330;82;21126;-58
2022/05/17 03:53:58;;;;;;;3.05;0.93;;;;;;;8.58;100.00;99521.94;1696898;83;20140;-59
2022/05/17 03:56:26;;;;;;;2.47;0.80;;;;;;;8.62;100.00;99516.27;1705719;82;21083;-58
2022/05/17 03:58:52;;;;;;;2.98;0.80;;;;;;;8.74;100.00;99516.05;1707796;83;21031;-58
2022/05/17 04:01:19;;;;;;;2.77;0.90;;;;;;;8.84;100.00;99516.09;1701595;83;21118;-59
2022/05/17 04:03:46;;;;;;;5.05;1.25;;;;;;;8.95;100.00;99510.44;1674957;84;20998;-59
2022/05/17 04:06:12;;;;;;;5.30;1.20;;;;;;;9.07;100.00;99503.97;1701999;83;21015;-59
2022/05/17 04:08:40;;;;;;;1.37;0.70;;;;;;;9.19;100.00;99495.02;1670347;85;21531;-57
2022/05/17 04:11:07;;;;;;;3.05;0.68;;;;;;;9.29;100.00;99499.92;1668350;85;21099;-58
2022/05/17 04:13:33;;;;;;;2.92;0.90;;;;;;;9.43;100.00;99505.11;1740406;81;21488;-58
2022/05/17 04:16:01;;;;;;;4.05;0.90;;;;;;;9.60;100.00;99497.27;1742706;81;21612;-58
2022/05/17 04:18:28;;;;;;;4.95;0.68;;;;;;;9.73;100.00;99493.45;1738866;81;21028;-58
2022/05/17 04:20:59;;;;;;;3.15;0.80;;;;;;;9.85;100.00;99497.23;1734818;81;21039;-58
2022/05/17 04:23:26;;;;;;;4.53;0.82;;;;;;;9.95;100.00;99497.25;1745329;82;21527;-57
2022/05/17 04:25:52;;;;;;;2.90;0.90;;;;;;;10.01;100.00;99496.16;1718659;82;22064;-57
2022/05/17 04:28:19;;;;;;;3.67;0.80;;;;;;;10.05;100.00;99490.98;1741982;81;21589;-57
2022/05/17 04:30:45;;;;;;;;;;;;;;;10.12;100.00;99489.62;1745495;80;21039;-58
2022/05/17 04:33:13;;;;;;;2.20;0.78;;;;;;;10.41;100.00;99492.58;1739527;81;20169;-57
2022/05/17 04:35:41;;;;;;;3.05;0.72;;;;;;;10.88;100.00;99491.57;1738139;81;21129;-58
2022/05/17 04:38:08;;;;;;;3.37;0.90;;;;;;;11.64;100.00;99491.11;1731517;81;21018;-58
2022/05/17 04:40:35;;;;;;;5.12;0.90;;;;;;;12.39;100.00;99492.36;1737844;81;21067;-58
2022/05/17 04:43:02;;;;;;;2.58;0.82;;;;;;;12.75;100.00;99493.33;1729609;82;21482;-58
2022/05/17 04:45:28;;;;;;;2.60;0.95;;;;;;;12.84;100.00;99489.64;1743780;81;21059;-58
2022/05/17 04:47:55;;;;;;;3.10;0.85;;;;;;;12.86;100.00;99482.50;1735898;81;21067;-59
2022/05/17 04:50:22;;;;;;;3.10;0.72;;;;;;;12.87;100.00;99487.69;1742429;81;21072;-59
2022/05/17 04:52:48;;;;;;;1.82;0.82;;;;;;;12.90;100.00;99490.38;1729483;82;20992;-58
2022/05/17 04:55:17;;;;;;;2.87;0.95;;;;;;;12.83;100.00;99485.28;1748667;81;21066;-59
2022/05/17 04:57:45;;;;;;;4.05;0.90;;;;;;;12.80;100.00;99484.50;1741241;81;20982;-58
2022/05/17 05:00:18;;;;;;;4.87;1.50;;;;;;;12.81;100.00;99480.67;1736325;81;21012;-57
2022/05/17 05:02:44;;;;;;;7.30;1.65;;;;;;;12.81;100.00;99477.94;1744885;82;20975;-58
2022/05/17 05:05:14;;;;;;;3.50;1.72;;;;;;;12.77;100.00;99481.54;1741412;81;20988;-57
2022/05/17 05:07:44;;;;;;;5.67;2.05;;;;;;;12.75;100.00;99474.20;1716632;82;21007;-57
2022/05/17 05:10:11;;;;;;;4.33;2.08;;;;;;;12.82;100.00;99477.39;1702366;83;21558;-57
2022/05/17 05:12:37;;;;;;;4.30;1.95;;;;;;;12.84;99.84;99476.53;1726128;81;20988;-58
2022/05/17 05:15:07;;;;;;;5.08;1.85;;;;;;;12.75;100.00;99475.57;1740100;81;21044;-57
2022/05/17 05:17:35;;;;;;;5.90;1.60;;;;;;;12.77;100.00;99473.34;1717559;81;21641;-57
2022/05/17 05:20:06;;;;;;;6.87;1.50;;;;;;;13.04;100.00;99478.99;1738558;81;21547;-57
2022/05/17 05:22:33;;;;;;;4.78;1.40;;;;;;;13.34;98.99;99476.42;1740556;81;20992;-58
2022/05/17 05:25:00;;;;;;;;;;;;;;;13.36;100.00;99479.66;1748683;81;21580;-57
2022/05/17 05:27:32;;;;;;;4.20;1.30;;;;;;;13.33;100.00;99479.71;1735626;81;20449;-57
2022/05/17 05:30:00;;;;;;;4.03;1.10;;;;;;;13.16;100.00;99478.05;1746024;81;21015;-56
2022/05/17 05:32:27;;;;;;;2.95;1.30;;;;;;;13.09;100.00;99469.92;1720317;82;21510;-57
2022/05/17 05:34:54;;;;;;;4.22;1.20;;;;;;;13.16;100.00;99454.00;1723075;81;21529;-57
2022/05/17 05:37:20;;;;;;;4.85;1.10;;;;;;;13.62;100.00;99468.60;1735346;81;21106;-57
2022/05/17 05:39:46;;;;;;;;;;;;;;;14.15;100.00;99467.69;1730474;81;21083;-58
2022/05/17 05:42:13;;;;;;;2.80;1.00;;;;;;;14.66;100.00;99465.39;1736769;81;20113;-57
2022/05/17 05:44:39;;;;;;;;;;;;;;;15.07;100.00;99471.62;1727061;81;21021;-58
2022/05/17 05:47:06;;;;;;;4.58;0.80;;;;;;;15.60;94.74;99466.87;1739515;81;20192;-57
2022/05/17 05:49:33;;;;;;;3.67;0.80;;;;;;;15.63;77.27;99469.81;1717631;81;21027;-57
2022/05/17 05:51:59;;;;;;;4.80;1.20;;;;;;;15.52;77.69;99471.17;1742081;81;21112;-57
2022/05/17 05:54:26;;;;;;;3.00;1.20;;;;;;;15.66;69.06;99472.52;1734796;81;21047;-58
2022/05/17 05:56:53;;;;;;;2.40;0.62;;;;;;;15.75;67.07;99470.63;1736637;81;21054;-58
2022/05/17 05:59:20;;;;;;;1.60;0.70;;;;;;;15.76;67.73;99470.89;1721874;82;20970;-57
2022/05/17 06:01:46;;;;;;;2.02;0.90;;;;;;;15.78;67.75;99472.75;1734784;81;21468;-56
2022/05/17 06:04:15;;;;;;;3.17;1.02;;;;;;;15.69;67.24;99474.63;1741262;81;20968;-56
2022/05/17 06:06:42;;;;;;;5.67;0.90;;;;;;;15.74;69.77;99471.74;1735090;81;21019;-56
2022/05/17 06:09:08;;;;;;;2.65;0.95;;;;;;;16.04;61.91;99475.11;1731850;81;21015;-56
2022/05/17 06:11:34;;;;;;;3.92;1.00;;;;;;;16.32;63.99;99467.51;1741275;81;21573;-56
2022/05/17 06:14:03;;;;;;;3.08;0.80;;;;;;;16.69;62.57;99473.09;1696185;82;21323;-56
2022/05/17 06:16:29;;;;;;;3.52;0.70;;;;;;;17.17;57.16;99462.06;1741444;81;21083;-56
2022/05/17 06:18:56;;;;;;;3.87;0.75;;;;;;;17.54;51.81;99460.61;1744309;81;21007;-57
2022/05/17 06:21:22;;;;;;;2.17;0.55;;;;;;;17.72;51.91;99460.87;1734022;81;21036;-56
2022/05/17 06:23:49;;;;;;;1.25;0.50;;;;;;;17.97;51.06;99459.22;1746113;81;21471;-57
2022/05/17 06:26:17;;;;;;;2.10;0.50;;;;;;;18.18;46.79;99456.83;1745816;81;21072;-56
2022/05/17 06:28:43;;;;;;;1.92;0.72;;;;;;;18.26;46.44;99453.24;1743908;81;21047;-57
2022/05/17 06:31:09;;;;;;;5.90;0.80;;;;;;;18.35;45.91;99454.01;1742148;81;22040;-56
2022/05/17 06:33:39;;;;;;;2.42;0.60;;;;;;;18.23;43.33;99451.72;1736609;82;21012;-57
2022/05/17 06:36:06;;;;;;;1.42;0.40;;;;;;;18.04;44.92;99447.95;1732272;81;21569;-56
2022/05/17 06:38:33;;;;;;;2.85;0.53;;;;;;;17.94;44.31;99439.23;1744430;81;20964;-56
2022/05/17 06:40:59;;;;;;;1.67;0.50;;;;;;;17.94;45.55;99437.28;1733274;81;20992;-56
2022/05/17 06:43:27;;;;;;;2.87;0.40;;;;;;;18.01;42.88;99433.46;1734864;81;21004;-58
2022/05/17 06:45:54;;;;;;;3.52;0.50;;;;;;;18.01;43.42;99438.16;1744772;81;21098;-57
2022/05/17 06:48:20;;;;;;;1.77;0.50;;;;;;;18.09;42.33;99426.31;1739869;81;20998;-58
2022/05/17 06:50:47;;;;;;;1.25;0.33;;;;;;;18.29;43.69;99438.80;1743485;81;21043;-57
2022/05/17 06:53:14;;;;;;;1.92;0.40;;;;;;;18.44;40.47;99429.75;1742382;81;21059;-56
2022/05/17 06:55:41;;;;;;;3.35;0.55;;;;;;;18.60;41.28;99428.88;1740008;81;21076;-57
2022/05/17 06:58:09;;;;;;;0.80;0.40;;;;;;;19.04;41.05;99424.74;1680540;84;21040;-57
2022/05/17 07:00:36;;;;;;;0.78;0.40;;;;;;;19.21;36.82;99403.92;1680142;83;21069;-57
2022/05/17 07:03:03;;;;;;;0.68;0.25;;;;;;;19.02;36.16;99420.15;1742867;81;20996;-57
2022/05/17 07:05:29;;;;;;;1.52;0.42;;;;;;;18.93;36.70;99406.97;1742645;81;21527;-57
2022/05/17 07:08:00;;;;;;;1.12;0.40;;;;;;;19.09;35.68;99412.72;1742170;81;21031;-58
2022/05/17 07:13:13;;;;;;;1.65;0.50;;;;;;;19.29;37.59;99407.76;1727213;82;21581;-57
2022/05/17 07:15:47;;;;;;;1.20;0.40;;;;;;;19.51;37.17;99407.45;1739755;81;21126;-57
2022/05/17 07:18:17;;;;;;;1.42;0.35;;;;;;;19.64;35.85;99407.72;1737170;81;20993;-57
2022/05/17 07:20:46;;;;;;;0.88;0.35;;;;;;;19.62;36.20;99411.41;1739159;81;21138;-57
2022/05/17 07:24:25;;;;;;;1.17;0.40;;;;;;;19.70;34.24;99378.73;1803177;79;22891;-57
2022/05/17 07:26:53;;;;;;;2.60;0.42;;;;;;;19.77;35.38;99401.66;1770494;78;21062;-58
2022/05/17 07:29:19;;;;;;;0.93;0.40;;;;;;;19.84;35.04;99396.38;1793141;78;21038;-58
2022/05/17 07:31:48;;;;;;;2.85;0.30;;;;;;;19.99;37.10;99394.36;1783043;78;21597;-59
2022/05/17 07:34:15;;;;;;;2.67;0.20;;;;;;;20.32;36.03;99393.77;1780718;78;21026;-58
2022/05/17 07:36:41;;;;;;;1.85;0.30;;;;;;;20.37;34.78;99392.70;1787369;78;21087;-58
2022/05/17 07:39:08;;;;;;;1.62;0.30;;;;;;;19.95;34.43;99385.13;1787125;78;21050;-58
2022/05/17 07:41:35;;;;;;;1.47;0.23;;;;;;;19.73;36.08;99378.66;1788610;78;21067;-59
2022/05/17 07:44:03;;;;;;;6.72;0.35;;;;;;;19.89;35.58;99387.89;1789376;78;21046;-59
2022/05/17 07:46:31;;;;;;;1.20;0.40;;;;;;;20.14;34.03;99391.52;1769438;78;21043;-58
2022/05/17 07:48:57;;;;;;;2.70;0.45;;;;;;;20.09;33.79;99392.53;1785065;78;21044;-57
2022/05/17 07:51:24;;;;;;;1.35;0.20;;;;;;;20.04;35.34;99391.39;1780369;78;21113;-59
2022/05/17 07:53:51;;;;;;;1.45;0.25;;;;;;;20.18;36.00;99385.53;1773964;79;21038;-59
2022/05/17 07:56:17;;;;;;;1.17;0.30;;;;;;;20.18;34.97;99382.20;1788802;78;21099;-59
2022/05/17 07:58:45;;;;;;;1.12;0.30;;;;;;;19.85;34.64;99371.77;1778360;78;21541;-59
2022/05/17 08:01:12;;;;;;;0.98;0.23;;;;;;;19.52;36.12;99390.31;1774626;78;21031;-57
2022/05/17 08:03:39;;;;;;;6.65;0.40;;;;;;;19.36;35.70;99377.09;1791436;78;21911;-58
2022/05/17 08:06:07;;;;;;;5.67;0.50;;;;;;;19.04;33.87;99369.57;1786448;78;21039;-59
2022/05/17 08:08:33;;;;;;;3.35;0.33;;;;;;;18.53;35.40;99383.11;1783253;78;21540;-58
2022/05/17 08:11:01;;;;;;;4.75;0.30;;;;;;;18.33;36.72;99374.20;1777381;79;21134;-57
2022/05/17 08:13:27;;;;;;;5.25;0.30;;;;;;;18.40;36.02;99360.14;1772862;80;21485;-58
2022/05/17 08:15:54;;;;;;;1.82;0.30;;;;;;;18.61;37.37;99364.35;1779402;80;21078;-58
2022/05/17 08:18:20;;;;;;;1.72;0.20;;;;;;;18.84;35.13;99362.91;1770212;78;21454;-59
2022/05/17 08:20:49;;;;;;;1.27;0.20;;;;;;;18.75;35.01;99367.66;1804792;78;21011;-59
2022/05/17 08:23:15;;;;;;;2.37;0.28;;;;;;;18.82;36.91;99365.75;1779811;78;20998;-59
2022/05/17 08:28:27;;;;;;;0.95;0.28;;;;;;;19.28;34.69;99358.66;1784724;78;21053;-58
2022/05/17 08:30:54;;;;;;;1.35;0.30;;;;;;;19.24;36.47;99356.90;1775290;78;21700;-60
2022/05/17 08:33:23;;;;;;;1.30;0.20;;;;;;;19.22;35.40;99350.36;1773846;78;21039;-58
2022/05/17 08:35:57;;;;;;;2.60;0.30;;;;;;;19.19;35.87;99348.84;1802559;78;21059;-58
2022/05/17 08:38:33;;;;;;;0.65;0.28;;;;;;;19.30;36.60;99356.38;1789059;80;21026;-60
2022/05/17 08:41:44;;;;;;;1.75;0.42;;;;;;;19.67;36.63;99338.58;1780524;78;21038;-57
2022/05/17 08:44:14;;;;;;;3.42;0.30;;;;;;;20.10;35.38;99339.46;1772494;78;21054;-59
2022/05/17 08:46:50;;;;;;;1.20;0.30;;;;;;;20.43;33.53;99323.62;1778503;78;21202;-57
2022/05/17 08:49:26;;;;;;;1.37;0.30;;;;;;;20.73;33.94;99323.56;1765658;78;21054;-59
2022/05/17 08:52:17;;;;;;;2.20;0.50;;;;;;;20.85;34.57;99326.31;1778645;78;21078;-60
2022/05/17 08:55:01;;;;;;;2.85;0.45;;;;;;;20.83;33.31;99324.45;1783368;78;21474;-58
2022/05/17 08:57:50;;;;;;;0.70;0.25;;;;;;;20.54;33.60;99317.03;1784676;79;21011;-57
2022/05/17 09:00:24;;;;;;;3.22;0.40;;;;;;;20.16;33.04;99330.59;1787121;78;21119;-56
2022/05/17 09:03:18;;;;;;;4.67;0.45;;;;;;;19.72;34.40;99329.52;1745177;80;21473;-57
2022/05/17 09:06:11;;;;;;;3.30;0.40;;;;;;;19.75;35.71;99321.92;1714310;82;21506;-58
2022/05/17 09:08:52;;;;;;;2.20;0.60;;;;;;;20.14;36.05;99323.23;1739085;82;21087;-58
2022/05/17 09:11:23;;;;;;;6.20;0.50;;;;;;;20.56;36.13;99308.61;1694465;83;21552;-58
2022/05/17 09:14:15;;;;;;;2.33;0.47;;;;;;;20.58;33.85;99299.98;1726255;80;21510;-57
2022/05/17 09:16:46;;;;;;;4.45;0.55;;;;;;;20.52;35.50;99305.50;1740952;82;21040;-56
2022/05/17 09:19:15;;;;;;;1.98;0.50;;;;;;;20.54;36.65;99302.64;1738437;82;21028;-58
2022/05/17 09:21:43;;;;;;;3.62;0.70;;;;;;;20.43;35.13;99294.59;1737824;82;21698;-57
2022/05/17 09:24:16;;;;;;;2.05;0.70;;;;;;;20.24;36.09;99290.99;1731741;80;21008;-57
2022/05/17 09:26:52;;;;;;;2.30;0.65;;;;;;;20.22;36.93;99299.41;1775050;79;21032;-57
2022/05/17 09:29:22;;;;;;;3.67;0.60;;;;;;;20.31;35.15;99298.16;1766651;79;21005;-57
2022/05/17 09:31:54;;;;;;;2.87;0.72;;;;;;;20.21;36.71;99301.94;1767895;80;21040;-57
2022/05/17 09:34:31;;;;;;;3.77;0.70;;;;;;;20.26;37.57;99284.53;1770317;79;21474;-57
2022/05/17 09:37:07;;;;;;;2.72;1.17;;;;;;;20.35;37.06;99286.64;1771177;79;21044;-58
2022/05/17 09:39:34;;;;;;;9.43;1.07;;;;;;;20.28;34.05;99296.09;1754998;79;21051;-58
2022/05/17 09:42:04;;;;;;;2.75;0.70;;;;;;;19.97;35.00;99300.55;1769701;79;21007;-58
2022/05/17 09:44:30;;;;;;;4.17;0.60;;;;;;;19.76;36.10;99286.83;1777260;80;21055;-58
2022/05/17 09:47:00;;;;;;;2.52;0.62;;;;;;;19.65;35.33;99286.47;1771180;80;21067;-58
2022/05/17 09:52:46;;;;;;;4.97;0.80;;;;;;;19.79;36.26;99275.09;1762955;79;20904;-58
2022/05/17 09:55:25;;;;;;;2.95;0.53;;;;;;;19.79;35.95;99266.81;1760717;79;20950;-57
2022/05/17 09:58:10;;;;;;;3.77;0.80;;;;;;;19.67;36.07;99281.40;1765755;79;20956;-58
2022/05/17 10:00:47;;;;;;;4.22;0.68;;;;;;;19.35;36.27;99273.92;1749422;79;21090;-58
2022/05/17 10:03:35;;;;;;;6.33;0.70;;;;;;;19.05;36.49;99263.61;1764263;79;20984;-58
2022/05/17 10:06:15;;;;;;;6.45;0.70;;;;;;;18.73;37.20;99266.57;1767430;79;21079;-58
2022/05/17 10:09:05;;;;;;;4.70;0.80;;;;;;;18.59;38.57;99271.55;1782367;79;21027;-58
2022/05/17 10:11:53;;;;;;;7.87;0.70;;;;;;;18.67;39.91;99251.35;1671364;82;21310;-57
2022/05/17 10:14:51;;;;;;;4.78;0.85;;;;;;;18.95;40.67;99243.34;1776758;79;20956;-57
2022/05/17 10:17:39;;;;;;;2.55;0.60;;;;;;;19.19;40.21;99248.95;1766629;79;21023;-57
2022/05/17 10:20:16;;;;;;;6.62;0.70;;;;;;;19.41;37.72;99246.94;1765814;79;21468;-57
2022/05/17 10:23:11;;;;;;;3.75;0.47;;;;;;;19.51;38.75;99236.86;1761538;80;20993;-58
2022/05/17 10:25:48;;;;;;;3.45;0.50;;;;;;;19.68;37.15;99242.98;1728326;80;21048;-57
2022/05/17 10:28:36;;;;;;;1.53;0.50;;;;;;;19.44;36.83;99243.52;1733420;80;21100;-57
2022/05/17 10:31:32;;;;;;;5.60;0.75;;;;;;;19.28;37.16;99225.39;1725592;80;21732;-57
2022/05/17 10:34:48;;;;;;;3.10;0.60;;;;;;;19.23;36.27;99227.81;1737920;80;20997;-57
2022/05/17 10:37:19;;;;;;;2.72;0.47;;;;;;;19.19;37.26;99225.50;1728106;82;21099;-57
2022/05/17 10:40:09;;;;;;;7.00;0.55;;;;;;;19.30;37.89;99230.81;1727658;80;21019;-57
2022/05/17 10:42:37;;;;;;;3.98;0.90;;;;;;;19.44;36.91;99213.16;1746457;81;21457;-57
2022/05/17 10:45:06;;;;;;;4.47;0.60;;;;;;;19.32;36.97;99215.28;1721434;80;21028;-56
2022/05/17 10:48:19;;;;;;;5.25;0.80;;;;;;;19.25;38.95;99217.23;1692950;82;21007;-57
2022/05/17 10:51:22;;;;;;;2.65;0.60;;;;;;;19.29;36.77;99215.40;1739762;80;21520;-58
2022/05/17 10:54:31;;;;;;;3.20;0.40;;;;;;;19.15;38.43;99218.23;1679919;83;20977;-58
2022/05/17 10:57:23;;;;;;;4.30;0.70;;;;;;;19.10;37.95;99210.16;1683803;85;21045;-57
2022/05/17 10:59:58;;;;;;;4.17;0.60;;;;;;;18.96;36.86;99211.84;1688494;83;20998;-57
2022/05/17 11:03:01;;;;;;;5.00;0.53;;;;;;;18.93;37.67;99203.44;1677485;83;20997;-58
2022/05/17 11:05:39;;;;;;;6.70;0.57;;;;;;;19.08;37.10;99198.67;1731658;80;21064;-57
2022/05/17 11:08:37;;;;;;;3.40;0.45;;;;;;;19.03;37.30;99208.53;1729656;82;21516;-57
2022/05/17 11:11:37;;;;;;;4.12;0.50;;;;;;;19.01;37.01;99201.98;1750841;80;21061;-57
2022/05/17 11:14:08;;;;;;;6.40;0.60;;;;;;;19.03;37.66;99185.08;1739393;80;21015;-57
2022/05/17 11:16:57;;;;;;;3.95;0.60;;;;;;;19.24;37.16;99185.82;1744034;82;21084;-58
2022/05/17 11:19:31;;;;;;;;;;;;;;;19.45;36.18;99185.20;1738137;80;21554;-58
2022/05/17 11:22:15;;;;;;;8.58;0.90;;;;;;;19.57;35.16;99187.98;1735137;80;20103;-57
2022/05/17 11:25:06;;;;;;;11.12;0.70;;;;;;;19.46;34.42;99179.11;1747770;80;21010;-56
2022/05/17 11:27:56;;;;;;;6.45;0.57;;;;;;;19.36;35.32;99166.53;1773083;79;20990;-57
2022/05/17 11:30:38;;;;;;;6.08;0.68;;;;;;;19.27;35.71;99185.94;1775699;80;21056;-56
2022/05/17 11:33:26;;;;;;;7.05;0.60;;;;;;;19.14;34.29;99190.40;1767032;79;21494;-57
2022/05/17 11:36:02;;;;;;;8.83;0.85;;;;;;;18.92;34.85;99185.30;1762319;80;20996;-58
2022/05/17 11:38:41;;;;;;;10.63;1.07;;;;;;;18.59;34.45;99164.04;1775097;80;20975;-56
2022/05/17 11:41:11;;;;;;;7.58;0.70;;;;;;;18.68;34.86;99173.02;1760348;80;21523;-55
2022/05/17 11:43:46;;;;;;;6.22;0.93;;;;;;;18.70;33.81;99170.75;1779903;79;21023;-57
2022/05/17 11:46:34;;;;;;;12.43;0.90;;;;;;;18.60;33.44;99175.28;1771633;80;21020;-57
2022/05/17 11:49:15;;;;;;;5.22;0.70;;;;;;;18.44;33.73;99170.13;1766574;80;21007;-56
2022/05/17 11:52:03;;;;;;;5.55;1.00;;;;;;;18.36;33.64;99167.68;1768477;79;21075;-57
2022/05/17 11:54:46;;;;;;;8.15;0.70;;;;;;;18.39;32.74;99168.38;1773036;79;21546;-55
2022/05/17 11:57:27;;;;;;;8.40;0.93;;;;;;;18.32;32.74;99151.58;1760203;80;21549;-57
2022/05/17 12:00:04;;;;;;;5.70;0.70;;;;;;;18.35;33.09;99159.17;1704690;82;21092;-56
2022/05/17 12:02:48;;;;;;;7.92;0.90;;;;;;;18.58;33.59;99151.96;1780628;79;20983;-57
2022/05/17 12:05:44;;;;;;;11.73;1.10;;;;;;;18.79;32.27;99147.22;1762152;79;21194;-56
2022/05/17 12:08:35;;;;;;;9.78;0.70;;;;;;;18.90;30.22;99141.50;1769589;80;21040;-58
2022/05/17 12:11:42;;;;;;;8.03;1.20;;;;;;;18.93;32.42;99135.88;1711581;84;21616;-57